sensor_id;sensor_type;location;lat;lon;timestamp;pressure;altitude;pressure_sealevel;temperature;humidity
62617;BME280;62539;51.190;6.808;2023-05-23T00:02:12;101401.84;;;23.33;54.53
62617;BME280;62539;51.190;6.808;2023-05-23T00:04:39;101399.25;;;23.31;54.61
62617;BME280;62539;51.190;6.808;2023-05-23T00:07:05;101401.97;;;23.30;55.04
62617;BME280;62539;51.190;6.808;2023-05-23T00:09:30;101397.63;;;23.29;54.95
62617;BME280;62539;51.190;6.808;2023-05-23T00:11:56;101398.53;;;23.28;54.91
62617;BME280;62539;51.190;6.808;2023-05-23T00:14:21;101405.69;;;23.26;54.52
62617;BME280;62539;51.190;6.808;2023-05-23T00:16:48;101404.81;;;23.25;54.79
62617;BME280;62539;51.190;6.808;2023-05-23T00:19:14;101401.31;;;23.25;55.06
62617;BME280;62539;51.190;6.808;2023-05-23T00:21:45;101401.31;;;23.25;54.71
62617;BME280;62539;51.190;6.808;2023-05-23T00:24:16;101396.13;;;23.22;54.64
62617;BME280;62539;51.190;6.808;2023-05-23T00:26:43;101386.47;;;23.20;54.91
62617;BME280;62539;51.190;6.808;2023-05-23T00:29:09;101394.47;;;23.19;54.49
62617;BME280;62539;51.190;6.808;2023-05-23T00:31:40;101394.56;;;23.17;55.14
62617;BME280;62539;51.190;6.808;2023-05-23T00:34:07;101392.84;;;23.16;54.86
62617;BME280;62539;51.190;6.808;2023-05-23T00:36:32;101393.75;;;23.15;54.89
62617;BME280;62539;51.190;6.808;2023-05-23T00:39:02;101399.06;;;23.15;54.68
62617;BME280;62539;51.190;6.808;2023-05-23T00:41:27;101407.91;;;23.14;55.14
62617;BME280;62539;51.190;6.808;2023-05-23T00:43:55;101413.22;;;23.14;54.92
62617;BME280;62539;51.190;6.808;2023-05-23T00:46:22;101416.78;;;23.13;54.97
62617;BME280;62539;51.190;6.808;2023-05-23T00:48:48;101411.50;;;23.13;54.94
62617;BME280;62539;51.190;6.808;2023-05-23T00:51:14;101419.44;;;23.13;55.12
62617;BME280;62539;51.190;6.808;2023-05-23T00:53:40;101420.34;;;23.12;55.05
62617;BME280;62539;51.190;6.808;2023-05-23T00:56:06;101431.88;;;23.11;55.10
62617;BME280;62539;51.190;6.808;2023-05-23T00:58:32;101429.22;;;23.11;54.66
62617;BME280;62539;51.190;6.808;2023-05-23T01:00:58;101435.44;;;23.10;54.71
62617;BME280;62539;51.190;6.808;2023-05-23T01:03:24;101447.81;;;23.10;54.80
62617;BME280;62539;51.190;6.808;2023-05-23T01:06:04;101450.53;;;23.08;55.01
62617;BME280;62539;51.190;6.808;2023-05-23T01:08:30;101444.34;;;23.08;54.66
62617;BME280;62539;51.190;6.808;2023-05-23T01:11:00;101446.16;;;23.07;54.45
62617;BME280;62539;51.190;6.808;2023-05-23T01:13:39;101434.91;;;23.02;54.62
62617;BME280;62539;51.190;6.808;2023-05-23T01:16:17;101438.50;;;23.01;54.70
62617;BME280;62539;51.190;6.808;2023-05-23T01:21:52;101433.31;;;22.98;54.46
62617;BME280;62539;51.190;6.808;2023-05-23T01:24:35;101438.75;;;22.95;54.44
62617;BME280;62539;51.190;6.808;2023-05-23T01:30:12;101444.97;;;22.94;54.80
62617;BME280;62539;51.190;6.808;2023-05-23T01:32:45;101437.03;;;22.94;54.42
62617;BME280;62539;51.190;6.808;2023-05-23T01:35:13;101440.59;;;22.93;54.35
62617;BME280;62539;51.190;6.808;2023-05-23T01:37:45;101439.72;;;22.92;54.80
62617;BME280;62539;51.190;6.808;2023-05-23T01:40:10;101450.25;;;22.94;54.46
62617;BME280;62539;51.190;6.808;2023-05-23T01:42:36;101444.09;;;22.93;54.33
62617;BME280;62539;51.190;6.808;2023-05-23T01:45:02;101449.47;;;22.92;54.33
62617;BME280;62539;51.190;6.808;2023-05-23T01:47:28;101441.53;;;22.92;54.43
62617;BME280;62539;51.190;6.808;2023-05-23T01:49:54;101438.88;;;22.92;54.26
62617;BME280;62539;51.190;6.808;2023-05-23T01:52:21;101446.88;;;22.90;54.41
62617;BME280;62539;51.190;6.808;2023-05-23T01:54:48;101446.03;;;22.89;54.67
62617;BME280;62539;51.190;6.808;2023-05-23T01:57:15;101440.72;;;22.89;54.67
62617;BME280;62539;51.190;6.808;2023-05-23T01:59:41;101436.28;;;22.90;54.42
62617;BME280;62539;51.190;6.808;2023-05-23T02:02:07;101446.03;;;22.89;54.39
62617;BME280;62539;51.190;6.808;2023-05-23T02:04:33;101440.78;;;22.88;54.35
62617;BME280;62539;51.190;6.808;2023-05-23T02:06:59;101454.00;;;22.88;54.69
62617;BME280;62539;51.190;6.808;2023-05-23T02:09:24;101445.22;;;22.87;54.29
62617;BME280;62539;51.190;6.808;2023-05-23T02:11:50;101445.28;;;22.86;54.68
62617;BME280;62539;51.190;6.808;2023-05-23T02:14:15;101456.72;;;22.86;54.69
62617;BME280;62539;51.190;6.808;2023-05-23T02:16:42;101454.09;;;22.86;54.45
62617;BME280;62539;51.190;6.808;2023-05-23T02:19:07;101444.44;;;22.85;54.69
62617;BME280;62539;51.190;6.808;2023-05-23T02:21:33;101443.56;;;22.85;54.28
62617;BME280;62539;51.190;6.808;2023-05-23T02:23:58;101441.00;;;22.83;54.35
62617;BME280;62539;51.190;6.808;2023-05-23T02:26:24;101453.28;;;22.84;54.69
62617;BME280;62539;51.190;6.808;2023-05-23T02:28:51;101451.56;;;22.83;54.17
62617;BME280;62539;51.190;6.808;2023-05-23T02:31:17;101444.56;;;22.82;54.63
62617;BME280;62539;51.190;6.808;2023-05-23T02:33:42;101453.34;;;22.83;54.46
62617;BME280;62539;51.190;6.808;2023-05-23T02:36:08;101453.41;;;22.81;54.41
62617;BME280;62539;51.190;6.808;2023-05-23T02:38:33;101458.72;;;22.81;54.42
62617;BME280;62539;51.190;6.808;2023-05-23T02:40:59;101461.41;;;22.80;54.37
62617;BME280;62539;51.190;6.808;2023-05-23T02:43:24;101463.22;;;22.79;54.22
62617;BME280;62539;51.190;6.808;2023-05-23T02:45:50;101470.25;;;22.79;54.36
62617;BME280;62539;51.190;6.808;2023-05-23T02:48:15;101467.69;;;22.77;54.10
62617;BME280;62539;51.190;6.808;2023-05-23T02:50:41;101466.81;;;22.76;54.50
62617;BME280;62539;51.190;6.808;2023-05-23T02:53:06;101462.47;;;22.75;54.22
62617;BME280;62539;51.190;6.808;2023-05-23T02:55:32;101464.25;;;22.75;54.17
62617;BME280;62539;51.190;6.808;2023-05-23T02:57:57;101466.03;;;22.74;54.10
62617;BME280;62539;51.190;6.808;2023-05-23T03:00:23;101471.41;;;22.73;54.34
62617;BME280;62539;51.190;6.808;2023-05-23T03:02:49;101476.69;;;22.73;54.42
62617;BME280;62539;51.190;6.808;2023-05-23T03:05:15;101474.97;;;22.72;54.38
62617;BME280;62539;51.190;6.808;2023-05-23T03:07:41;101476.72;;;22.71;54.78
62617;BME280;62539;51.190;6.808;2023-05-23T03:10:07;101480.25;;;22.72;54.79
62617;BME280;62539;51.190;6.808;2023-05-23T03:12:32;101479.38;;;22.71;54.75
62617;BME280;62539;51.190;6.808;2023-05-23T03:14:58;101478.53;;;22.71;54.80
62617;BME280;62539;51.190;6.808;2023-05-23T03:17:24;101474.16;;;22.70;54.35
62617;BME280;62539;51.190;6.808;2023-05-23T03:19:50;101473.28;;;22.69;54.42
62617;BME280;62539;51.190;6.808;2023-05-23T03:22:15;101475.09;;;22.69;54.32
62617;BME280;62539;51.190;6.808;2023-05-23T03:24:41;101477.75;;;22.69;54.71
62617;BME280;62539;51.190;6.808;2023-05-23T03:27:07;101474.22;;;22.68;54.51
62617;BME280;62539;51.190;6.808;2023-05-23T03:29:32;101479.59;;;22.67;54.74
62617;BME280;62539;51.190;6.808;2023-05-23T03:31:58;101477.78;;;22.67;54.38
62617;BME280;62539;51.190;6.808;2023-05-23T03:34:23;101476.06;;;22.66;54.68
62617;BME280;62539;51.190;6.808;2023-05-23T03:36:50;101471.69;;;22.65;54.86
62617;BME280;62539;51.190;6.808;2023-05-23T03:39:16;101475.22;;;22.66;54.35
62617;BME280;62539;51.190;6.808;2023-05-23T03:41:42;101472.63;;;22.64;54.47
62617;BME280;62539;51.190;6.808;2023-05-23T03:44:07;101473.50;;;22.65;54.58
62617;BME280;62539;51.190;6.808;2023-05-23T03:46:32;101472.69;;;22.63;54.27
62617;BME280;62539;51.190;6.808;2023-05-23T03:48:58;101480.63;;;22.63;54.26
62617;BME280;62539;51.190;6.808;2023-05-23T03:51:23;101480.63;;;22.63;54.56
62617;BME280;62539;51.190;6.808;2023-05-23T03:53:48;101492.97;;;22.62;54.36
62617;BME280;62539;51.190;6.808;2023-05-23T03:56:14;101493.06;;;22.60;54.53
62617;BME280;62539;51.190;6.808;2023-05-23T03:58:39;101486.88;;;22.60;54.68
62617;BME280;62539;51.190;6.808;2023-05-23T04:01:05;101497.53;;;22.58;54.72
62617;BME280;62539;51.190;6.808;2023-05-23T04:03:31;101505.53;;;22.57;54.53
62617;BME280;62539;51.190;6.808;2023-05-23T04:06:00;101497.59;;;22.57;54.62
62617;BME280;62539;51.190;6.808;2023-05-23T04:08:26;101505.59;;;22.55;54.28
62617;BME280;62539;51.190;6.808;2023-05-23T04:10:53;101506.44;;;22.56;54.56
62617;BME280;62539;51.190;6.808;2023-05-23T04:13:18;101506.44;;;22.56;54.26
62617;BME280;62539;51.190;6.808;2023-05-23T04:15:44;101504.81;;;22.53;54.76
62617;BME280;62539;51.190;6.808;2023-05-23T04:18:11;101515.38;;;22.53;54.50
62617;BME280;62539;51.190;6.808;2023-05-23T04:20:39;101512.72;;;22.53;54.51
62617;BME280;62539;51.190;6.808;2023-05-23T04:23:05;101513.66;;;22.52;54.51
62617;BME280;62539;51.190;6.808;2023-05-23T04:25:31;101515.41;;;22.52;54.48
62617;BME280;62539;51.190;6.808;2023-05-23T04:27:56;101514.56;;;22.51;54.57
62617;BME280;62539;51.190;6.808;2023-05-23T04:30:21;101520.72;;;22.52;54.81
62617;BME280;62539;51.190;6.808;2023-05-23T04:32:47;101519.88;;;22.51;54.54
62617;BME280;62539;51.190;6.808;2023-05-23T04:35:12;101518.13;;;22.50;54.59
62617;BME280;62539;51.190;6.808;2023-05-23T04:37:38;101534.00;;;22.50;54.95
62617;BME280;62539;51.190;6.808;2023-05-23T04:40:07;101523.44;;;22.50;54.93
62617;BME280;62539;51.190;6.808;2023-05-23T04:42:33;101530.44;;;22.51;55.40
62617;BME280;62539;51.190;6.808;2023-05-23T04:44:58;101532.16;;;22.52;55.44
62617;BME280;62539;51.190;6.808;2023-05-23T04:47:26;101541.00;;;22.51;55.25
62617;BME280;62539;51.190;6.808;2023-05-23T04:49:55;101536.53;;;22.53;55.61
62617;BME280;62539;51.190;6.808;2023-05-23T04:52:21;101545.31;;;22.54;55.42
62617;BME280;62539;51.190;6.808;2023-05-23T04:54:47;101543.53;;;22.54;55.44
62617;BME280;62539;51.190;6.808;2023-05-23T04:57:12;101540.91;;;22.54;55.24
62617;BME280;62539;51.190;6.808;2023-05-23T04:59:38;101536.44;;;22.55;55.20
62617;BME280;62539;51.190;6.808;2023-05-23T05:02:03;101553.19;;;22.55;55.37
62617;BME280;62539;51.190;6.808;2023-05-23T05:04:30;101542.63;;;22.55;55.59
62617;BME280;62539;51.190;6.808;2023-05-23T05:06:56;101547.91;;;22.55;54.91
62617;BME280;62539;51.190;6.808;2023-05-23T05:09:22;101539.97;;;22.55;55.08
62617;BME280;62539;51.190;6.808;2023-05-23T05:11:47;101543.47;;;22.56;54.55
62617;BME280;62539;51.190;6.808;2023-05-23T05:14:13;101541.75;;;22.55;54.73
62617;BME280;62539;51.190;6.808;2023-05-23T05:16:38;101551.41;;;22.56;54.18
62617;BME280;62539;51.190;6.808;2023-05-23T05:19:04;101560.25;;;22.55;54.55
62617;BME280;62539;51.190;6.808;2023-05-23T05:21:30;101555.84;;;22.55;53.99
62617;BME280;62539;51.190;6.808;2023-05-23T05:23:55;101554.03;;;22.56;54.37
62617;BME280;62539;51.190;6.808;2023-05-23T05:26:21;101552.31;;;22.55;54.18
62617;BME280;62539;51.190;6.808;2023-05-23T05:28:47;101550.56;;;22.55;54.06
62617;BME280;62539;51.190;6.808;2023-05-23T05:31:13;101558.47;;;22.55;54.18
62617;BME280;62539;51.190;6.808;2023-05-23T05:33:40;101563.81;;;22.54;53.81
62617;BME280;62539;51.190;6.808;2023-05-23T05:36:06;101567.34;;;22.54;53.47
62617;BME280;62539;51.190;6.808;2023-05-23T05:38:31;101567.34;;;22.54;53.73
62617;BME280;62539;51.190;6.808;2023-05-23T05:40:57;101564.69;;;22.54;53.70
62617;BME280;62539;51.190;6.808;2023-05-23T05:43:23;101570.91;;;22.53;53.57
62617;BME280;62539;51.190;6.808;2023-05-23T05:45:49;101575.31;;;22.53;53.78
62617;BME280;62539;51.190;6.808;2023-05-23T05:48:14;101578.88;;;22.52;53.97
62617;BME280;62539;51.190;6.808;2023-05-23T05:50:40;101576.31;;;22.50;53.77
62617;BME280;62539;51.190;6.808;2023-05-23T05:53:09;101577.09;;;22.52;53.63
62617;BME280;62539;51.190;6.808;2023-05-23T05:55:35;101583.31;;;22.51;54.00
62617;BME280;62539;51.190;6.808;2023-05-23T05:58:00;101584.16;;;22.52;53.82
62617;BME280;62539;51.190;6.808;2023-05-23T06:00:26;101585.03;;;22.52;53.74
62617;BME280;62539;51.190;6.808;2023-05-23T06:02:51;101585.97;;;22.51;53.87
62617;BME280;62539;51.190;6.808;2023-05-23T06:05:21;101585.16;;;22.49;54.07
62617;BME280;62539;51.190;6.808;2023-05-23T06:07:48;101587.84;;;22.48;53.74
62617;BME280;62539;51.190;6.808;2023-05-23T06:10:17;101587.03;;;22.45;53.99
62617;BME280;62539;51.190;6.808;2023-05-23T06:12:43;101592.34;;;22.45;53.77
62617;BME280;62539;51.190;6.808;2023-05-23T06:15:09;101583.56;;;22.45;54.14
62617;BME280;62539;51.190;6.808;2023-05-23T06:17:35;101586.13;;;22.46;53.80
62617;BME280;62539;51.190;6.808;2023-05-23T06:20:00;101594.94;;;22.47;54.21
62617;BME280;62539;51.190;6.808;2023-05-23T06:22:26;101591.38;;;22.48;54.39
62617;BME280;62539;51.190;6.808;2023-05-23T06:24:51;101596.66;;;22.48;54.18
62617;BME280;62539;51.190;6.808;2023-05-23T06:27:16;101595.84;;;22.46;54.19
62617;BME280;62539;51.190;6.808;2023-05-23T06:29:42;101597.56;;;22.47;54.44
62617;BME280;62539;51.190;6.808;2023-05-23T06:32:07;101596.69;;;22.46;54.12
62617;BME280;62539;51.190;6.808;2023-05-23T06:34:33;101588.84;;;22.45;54.16
62617;BME280;62539;51.190;6.808;2023-05-23T06:36:58;101600.25;;;22.45;54.58
62617;BME280;62539;51.190;6.808;2023-05-23T06:39:24;101590.56;;;22.46;54.20
62617;BME280;62539;51.190;6.808;2023-05-23T06:41:49;101587.91;;;22.46;54.52
62617;BME280;62539;51.190;6.808;2023-05-23T06:44:15;101595.84;;;22.46;54.50
62617;BME280;62539;51.190;6.808;2023-05-23T06:46:47;101601.13;;;22.46;54.64
62617;BME280;62539;51.190;6.808;2023-05-23T06:49:13;101611.72;;;22.46;54.10
62617;BME280;62539;51.190;6.808;2023-05-23T06:51:39;101611.72;;;22.46;54.16
62617;BME280;62539;51.190;6.808;2023-05-23T06:54:05;101617.84;;;22.46;54.12
62617;BME280;62539;51.190;6.808;2023-05-23T06:56:30;101624.00;;;22.47;54.11
62617;BME280;62539;51.190;6.808;2023-05-23T06:58:56;101624.81;;;22.49;54.47
62617;BME280;62539;51.190;6.808;2023-05-23T07:01:21;101625.75;;;22.48;54.45
62617;BME280;62539;51.190;6.808;2023-05-23T07:03:47;101636.31;;;22.48;54.45
62617;BME280;62539;51.190;6.808;2023-05-23T07:06:12;101636.31;;;22.48;54.21
62617;BME280;62539;51.190;6.808;2023-05-23T07:08:38;101634.47;;;22.50;54.03
62617;BME280;62539;51.190;6.808;2023-05-23T07:11:04;101639.75;;;22.50;54.15
62617;BME280;62539;51.190;6.808;2023-05-23T07:13:30;101639.75;;;22.50;54.41
62617;BME280;62539;51.190;6.808;2023-05-23T07:15:56;101639.75;;;22.50;54.22
62617;BME280;62539;51.190;6.808;2023-05-23T07:18:22;101642.34;;;22.52;53.97
62617;BME280;62539;51.190;6.808;2023-05-23T07:20:48;101642.34;;;22.52;54.13
62617;BME280;62539;51.190;6.808;2023-05-23T07:23:14;101637.94;;;22.52;54.42
62617;BME280;62539;51.190;6.808;2023-05-23T07:25:40;101636.09;;;22.54;53.95
62617;BME280;62539;51.190;6.808;2023-05-23T07:28:07;101647.50;;;22.55;53.91
62617;BME280;62539;51.190;6.808;2023-05-23T07:30:32;101655.41;;;22.56;54.16
62617;BME280;62539;51.190;6.808;2023-05-23T07:32:58;101645.66;;;22.57;53.97
62617;BME280;62539;51.190;6.808;2023-05-23T07:35:23;101660.56;;;22.59;53.99
62617;BME280;62539;51.190;6.808;2023-05-23T07:37:53;101652.56;;;22.61;53.97
62617;BME280;62539;51.190;6.808;2023-05-23T07:40:20;101653.44;;;22.61;54.20
62617;BME280;62539;51.190;6.808;2023-05-23T07:42:46;101657.81;;;22.63;54.01
62617;BME280;62539;51.190;6.808;2023-05-23T07:45:12;101653.44;;;22.61;53.99
62617;BME280;62539;51.190;6.808;2023-05-23T07:47:37;101653.44;;;22.61;54.09
62617;BME280;62539;51.190;6.808;2023-05-23T07:50:04;101660.47;;;22.63;54.00
62617;BME280;62539;51.190;6.808;2023-05-23T07:52:30;101670.13;;;22.64;53.95
62617;BME280;62539;51.190;6.808;2023-05-23T07:54:56;101657.75;;;22.64;53.90
62617;BME280;62539;51.190;6.808;2023-05-23T07:57:22;101668.28;;;22.66;54.08
62617;BME280;62539;51.190;6.808;2023-05-23T07:59:52;101672.69;;;22.65;53.95
62617;BME280;62539;51.190;6.808;2023-05-23T08:02:18;101672.75;;;22.64;54.14
62617;BME280;62539;51.190;6.808;2023-05-23T08:04:44;101670.03;;;22.65;53.77
62617;BME280;62539;51.190;6.808;2023-05-23T08:07:10;101671.84;;;22.65;53.87
62617;BME280;62539;51.190;6.808;2023-05-23T08:09:40;101676.22;;;22.66;53.86
62617;BME280;62539;51.190;6.808;2023-05-23T08:12:08;101681.50;;;22.66;54.04
62617;BME280;62539;51.190;6.808;2023-05-23T08:14:34;101683.22;;;22.67;54.02
62617;BME280;62539;51.190;6.808;2023-05-23T08:17:00;101690.25;;;22.68;54.11
62617;BME280;62539;51.190;6.808;2023-05-23T08:19:25;101696.38;;;22.68;54.24
62617;BME280;62539;51.190;6.808;2023-05-23T08:21:50;101704.25;;;22.70;53.92
62617;BME280;62539;51.190;6.808;2023-05-23T08:24:17;101705.13;;;22.70;54.12
62617;BME280;62539;51.190;6.808;2023-05-23T08:26:44;101706.00;;;22.71;54.07
62617;BME280;62539;51.190;6.808;2023-05-23T08:29:09;101708.63;;;22.71;53.94
62617;BME280;62539;51.190;6.808;2023-05-23T08:31:35;101712.13;;;22.71;54.01
62617;BME280;62539;51.190;6.808;2023-05-23T08:34:01;101711.28;;;22.71;54.02
62617;BME280;62539;51.190;6.808;2023-05-23T08:36:26;101713.00;;;22.72;53.93
62617;BME280;62539;51.190;6.808;2023-05-23T08:38:51;101716.56;;;22.71;53.47
62617;BME280;62539;51.190;6.808;2023-05-23T08:41:21;101720.13;;;22.70;53.59
62617;BME280;62539;51.190;6.808;2023-05-23T08:43:48;101719.34;;;22.68;53.51
62617;BME280;62539;51.190;6.808;2023-05-23T08:46:14;101736.13;;;22.67;53.71
62617;BME280;62539;51.190;6.808;2023-05-23T08:48:41;101730.81;;;22.67;53.61
62617;BME280;62539;51.190;6.808;2023-05-23T08:51:09;101736.13;;;22.67;53.76
62617;BME280;62539;51.190;6.808;2023-05-23T08:53:37;101732.59;;;22.66;54.07
62617;BME280;62539;51.190;6.808;2023-05-23T08:56:05;101737.03;;;22.66;53.89
62617;BME280;62539;51.190;6.808;2023-05-23T08:58:31;101743.25;;;22.65;53.63
62617;BME280;62539;51.190;6.808;2023-05-23T09:00:59;101746.81;;;22.64;53.49
62617;BME280;62539;51.190;6.808;2023-05-23T09:03:25;101753.94;;;22.61;53.63
62617;BME280;62539;51.190;6.808;2023-05-23T09:05:53;101752.22;;;22.60;53.57
62617;BME280;62539;51.190;6.808;2023-05-23T09:08:20;101761.91;;;22.60;53.84
62617;BME280;62539;51.190;6.808;2023-05-23T09:10:47;101761.06;;;22.59;53.86
62617;BME280;62539;51.190;6.808;2023-05-23T09:13:17;101755.78;;;22.59;53.55
62617;BME280;62539;51.190;6.808;2023-05-23T09:16:04;101758.53;;;22.56;53.79
62617;BME280;62539;51.190;6.808;2023-05-23T09:18:35;101760.28;;;22.56;53.64
62617;BME280;62539;51.190;6.808;2023-05-23T09:21:02;101769.16;;;22.55;53.73
62617;BME280;62539;51.190;6.808;2023-05-23T09:23:32;101773.59;;;22.54;53.55
62617;BME280;62539;51.190;6.808;2023-05-23T09:26:08;101776.34;;;22.51;53.65
62617;BME280;62539;51.190;6.808;2023-05-23T09:28:36;101787.84;;;22.50;53.86
62617;BME280;62539;51.190;6.808;2023-05-23T09:31:04;101789.66;;;22.48;53.72
62617;BME280;62539;51.190;6.808;2023-05-23T09:33:48;101777.38;;;22.47;53.75
62617;BME280;62539;51.190;6.808;2023-05-23T09:36:15;101788.78;;;22.48;53.82
62617;BME280;62539;51.190;6.808;2023-05-23T09:38:46;101790.59;;;22.47;53.44
62617;BME280;62539;51.190;6.808;2023-05-23T09:41:13;101791.41;;;22.49;53.58
62617;BME280;62539;51.190;6.808;2023-05-23T09:43:39;101793.13;;;22.50;53.76
62617;BME280;62539;51.190;6.808;2023-05-23T09:46:18;101789.59;;;22.50;53.70
62617;BME280;62539;51.190;6.808;2023-05-23T09:48:46;101788.75;;;22.49;53.41
62617;BME280;62539;51.190;6.808;2023-05-23T09:51:12;101795.81;;;22.49;53.36
62617;BME280;62539;51.190;6.808;2023-05-23T09:53:37;101798.53;;;22.47;53.35
62617;BME280;62539;51.190;6.808;2023-05-23T09:56:03;101797.63;;;22.46;53.38
62617;BME280;62539;51.190;6.808;2023-05-23T09:58:31;101803.00;;;22.45;53.25
62617;BME280;62539;51.190;6.808;2023-05-23T10:00:59;101809.16;;;22.44;53.39
62617;BME280;62539;51.190;6.808;2023-05-23T10:03:32;101805.72;;;22.42;53.20
62617;BME280;62539;51.190;6.808;2023-05-23T10:06:07;101804.84;;;22.41;53.25
62617;BME280;62539;51.190;6.808;2023-05-23T10:08:41;101807.53;;;22.40;53.52
62617;BME280;62539;51.190;6.808;2023-05-23T10:13:40;101807.53;;;22.40;53.25
62617;BME280;62539;51.190;6.808;2023-05-23T10:16:18;101812.84;;;22.40;53.15
62617;BME280;62539;51.190;6.808;2023-05-23T10:18:55;101807.53;;;22.40;53.50
62617;BME280;62539;51.190;6.808;2023-05-23T10:21:28;101811.09;;;22.39;53.23
62617;BME280;62539;51.190;6.808;2023-05-23T10:23:58;101819.03;;;22.39;53.07
62617;BME280;62539;51.190;6.808;2023-05-23T10:26:25;101817.25;;;22.39;53.04
62617;BME280;62539;51.190;6.808;2023-05-23T10:28:51;101824.34;;;22.37;53.17
62617;BME280;62539;51.190;6.808;2023-05-23T10:31:19;101826.16;;;22.37;53.11
62617;BME280;62539;51.190;6.808;2023-05-23T10:33:52;101827.88;;;22.38;53.23
62617;BME280;62539;51.190;6.808;2023-05-23T10:36:47;101837.66;;;22.36;53.68
62617;BME280;62539;51.190;6.808;2023-05-23T10:42:01;101835.81;;;22.38;53.27
62617;BME280;62539;51.190;6.808;2023-05-23T10:44:35;101833.00;;;22.42;52.97
62617;BME280;62539;51.190;6.808;2023-05-23T10:47:02;101832.94;;;22.45;52.59
62617;BME280;62539;51.190;6.808;2023-05-23T10:49:38;101840.72;;;22.50;52.68
62617;BME280;62539;51.190;6.808;2023-05-23T10:52:06;101834.34;;;22.56;53.01
62617;BME280;62539;51.190;6.808;2023-05-23T10:57:09;101840.00;;;22.70;52.73
62617;BME280;62539;51.190;6.808;2023-05-23T10:59:40;101831.03;;;22.74;53.30
62617;BME280;62539;51.190;6.808;2023-05-23T11:02:12;101835.31;;;22.79;53.19
62617;BME280;62539;51.190;6.808;2023-05-23T11:04:42;101835.09;;;22.85;53.28
62617;BME280;62539;51.190;6.808;2023-05-23T11:07:35;101825.97;;;22.94;52.99
62617;BME280;62539;51.190;6.808;2023-05-23T11:10:07;101827.47;;;23.01;52.79
62617;BME280;62539;51.190;6.808;2023-05-23T11:12:40;101828.16;;;23.06;53.23
62617;BME280;62539;51.190;6.808;2023-05-23T11:15:26;101832.56;;;23.05;52.99
62617;BME280;62539;51.190;6.808;2023-05-23T11:17:53;101826.31;;;23.08;53.05
62617;BME280;62539;51.190;6.808;2023-05-23T11:20:23;101831.50;;;23.11;53.24
62617;BME280;62539;51.190;6.808;2023-05-23T11:22:59;101829.66;;;23.13;53.31
62617;BME280;62539;51.190;6.808;2023-05-23T11:25:43;101823.38;;;23.16;53.41
62617;BME280;62539;51.190;6.808;2023-05-23T11:28:12;101826.81;;;23.18;53.22
62617;BME280;62539;51.190;6.808;2023-05-23T11:30:38;101827.72;;;23.18;53.14
62617;BME280;62539;51.190;6.808;2023-05-23T11:33:12;101838.28;;;23.18;53.37
62617;BME280;62539;51.190;6.808;2023-05-23T11:35:42;101841.75;;;23.20;53.46
62617;BME280;62539;51.190;6.808;2023-05-23T11:38:09;101840.03;;;23.19;53.19
62617;BME280;62539;51.190;6.808;2023-05-23T11:40:39;101844.41;;;23.20;53.45
62617;BME280;62539;51.190;6.808;2023-05-23T11:43:08;101847.03;;;23.20;53.50
62617;BME280;62539;51.190;6.808;2023-05-23T11:45:35;101845.31;;;23.19;53.49
62617;BME280;62539;51.190;6.808;2023-05-23T11:48:10;101853.25;;;23.19;53.33
62617;BME280;62539;51.190;6.808;2023-05-23T11:51:02;101850.59;;;23.19;53.45
62617;BME280;62539;51.190;6.808;2023-05-23T11:53:28;101847.78;;;23.26;53.49
62617;BME280;62539;51.190;6.808;2023-05-23T11:55:56;101851.16;;;23.29;53.14
62617;BME280;62539;51.190;6.808;2023-05-23T11:58:32;101839.59;;;23.32;53.05
62617;BME280;62539;51.190;6.808;2023-05-23T12:01:06;101850.81;;;23.39;52.97
62617;BME280;62539;51.190;6.808;2023-05-23T12:03:49;101855.25;;;23.38;53.15
62617;BME280;62539;51.190;6.808;2023-05-23T12:06:20;101849.94;;;23.38;52.67
62617;BME280;62539;51.190;6.808;2023-05-23T12:08:50;101846.50;;;23.36;53.31
62617;BME280;62539;51.190;6.808;2023-05-23T12:11:16;101852.72;;;23.35;52.85
62617;BME280;62539;51.190;6.808;2023-05-23T12:13:41;101855.38;;;23.35;52.63
62617;BME280;62539;51.190;6.808;2023-05-23T12:16:07;101863.22;;;23.37;53.15
62617;BME280;62539;51.190;6.808;2023-05-23T12:18:33;101864.03;;;23.39;52.94
62617;BME280;62539;51.190;6.808;2023-05-23T12:21:02;101864.81;;;23.42;52.89
62617;BME280;62539;51.190;6.808;2023-05-23T12:23:30;101856.75;;;23.45;52.95
62617;BME280;62539;51.190;6.808;2023-05-23T12:25:56;101852.13;;;23.51;52.61
62617;BME280;62539;51.190;6.808;2023-05-23T12:28:42;101856.38;;;23.55;52.74
62617;BME280;62539;51.190;6.808;2023-05-23T12:31:16;101851.09;;;23.55;52.71
62617;BME280;62539;51.190;6.808;2023-05-23T12:33:44;101856.59;;;23.72;52.74
62617;BME280;62539;51.190;6.808;2023-05-23T12:36:12;101846.28;;;23.87;51.90
62617;BME280;62539;51.190;6.808;2023-05-23T12:38:46;101853.38;;;24.08;51.88
62617;BME280;62539;51.190;6.808;2023-05-23T12:41:16;101853.38;;;24.08;51.56
62617;BME280;62539;51.190;6.808;2023-05-23T12:43:54;101853.94;;;24.17;51.27
62617;BME280;62539;51.190;6.808;2023-05-23T12:46:24;101840.41;;;24.23;51.13
62617;BME280;62539;51.190;6.808;2023-05-23T12:48:51;101849.84;;;24.30;50.65
62617;BME280;62539;51.190;6.808;2023-05-23T12:51:18;101845.22;;;24.35;49.96
62617;BME280;62539;51.190;6.808;2023-05-23T12:53:45;101847.41;;;24.26;49.88
62617;BME280;62539;51.190;6.808;2023-05-23T12:56:10;101844.34;;;24.35;49.74
62617;BME280;62539;51.190;6.808;2023-05-23T12:58:36;101833.00;;;24.31;49.88
62617;BME280;62539;51.190;6.808;2023-05-23T13:01:02;101836.53;;;24.32;49.85
62617;BME280;62539;51.190;6.808;2023-05-23T13:03:28;101843.09;;;24.64;49.31
62617;BME280;62539;51.190;6.808;2023-05-23T13:05:57;101843.47;;;24.77;49.39
62617;BME280;62539;51.190;6.808;2023-05-23T13:08:24;101842.41;;;24.82;49.36